sensor_id;sensor_type;location;lat;lon;timestamp;P1;durP1;ratioP1;P2;durP2;ratioP2
8927;SDS011;4499;48.304;11.902;2022-07-18T00:02:14;4.33;;;2.60;;
8927;SDS011;4499;48.304;11.902;2022-07-18T00:04:43;5.37;;;2.40;;
8927;SDS011;4499;48.304;11.902;2022-07-18T00:07:12;2.77;;;2.20;;
8927;SDS011;4499;48.304;11.902;2022-07-18T00:09:40;5.47;;;2.67;;
8927;SDS011;4499;48.304;11.902;2022-07-18T00:12:11;3.47;;;2.80;;
8927;SDS011;4499;48.304;11.902;2022-07-18T00:14:39;2.80;;;2.40;;
8927;SDS011;4499;48.304;11.902;2022-07-18T00:17:07;5.13;;;2.77;;
8927;SDS011;4499;48.304;11.902;2022-07-18T00:19:38;3.10;;;2.50;;
8927;SDS011;4499;48.304;11.902;2022-07-18T00:22:06;4.07;;;2.57;;
8927;SDS011;4499;48.304;11.902;2022-07-18T00:24:35;2.87;;;2.50;;
8927;SDS011;4499;48.304;11.902;2022-07-18T00:27:06;3.00;;;2.70;;
8927;SDS011;4499;48.304;11.902;2022-07-18T00:29:36;3.10;;;2.80;;
8927;SDS011;4499;48.304;11.902;2022-07-18T00:32:06;4.07;;;2.57;;
8927;SDS011;4499;48.304;11.902;2022-07-18T00:34:35;2.80;;;2.60;;
8927;SDS011;4499;48.304;11.902;2022-07-18T00:37:03;3.03;;;2.73;;
8927;SDS011;4499;48.304;11.902;2022-07-18T00:39:32;3.30;;;3.00;;
8927;SDS011;4499;48.304;11.902;2022-07-18T00:42:00;3.47;;;2.90;;
8927;SDS011;4499;48.304;11.902;2022-07-18T00:44:28;4.03;;;3.10;;
8927;SDS011;4499;48.304;11.902;2022-07-18T00:46:59;3.60;;;3.00;;
8927;SDS011;4499;48.304;11.902;2022-07-18T00:49:32;6.70;;;3.00;;
8927;SDS011;4499;48.304;11.902;2022-07-18T00:52:00;4.40;;;3.07;;
8927;SDS011;4499;48.304;11.902;2022-07-18T00:54:28;3.90;;;3.17;;
8927;SDS011;4499;48.304;11.902;2022-07-18T00:56:57;3.20;;;2.70;;
8927;SDS011;4499;48.304;11.902;2022-07-18T00:59:26;3.50;;;3.00;;
8927;SDS011;4499;48.304;11.902;2022-07-18T01:02:10;3.57;;;3.00;;
8927;SDS011;4499;48.304;11.902;2022-07-18T01:04:38;3.63;;;3.20;;
8927;SDS011;4499;48.304;11.902;2022-07-18T01:07:08;2.87;;;2.60;;
8927;SDS011;4499;48.304;11.902;2022-07-18T01:09:38;4.40;;;3.30;;
8927;SDS011;4499;48.304;11.902;2022-07-18T01:12:06;3.43;;;2.70;;
8927;SDS011;4499;48.304;11.902;2022-07-18T01:14:35;4.03;;;3.10;;
8927;SDS011;4499;48.304;11.902;2022-07-18T01:17:12;4.83;;;3.20;;
8927;SDS011;4499;48.304;11.902;2022-07-18T01:19:43;5.33;;;3.30;;
8927;SDS011;4499;48.304;11.902;2022-07-18T01:22:14;4.40;;;3.20;;
8927;SDS011;4499;48.304;11.902;2022-07-18T01:24:44;4.90;;;3.07;;
8927;SDS011;4499;48.304;11.902;2022-07-18T01:27:15;3.80;;;2.97;;
8927;SDS011;4499;48.304;11.902;2022-07-18T01:29:44;4.00;;;3.20;;
8927;SDS011;4499;48.304;11.902;2022-07-18T01:32:15;4.37;;;3.50;;
8927;SDS011;4499;48.304;11.902;2022-07-18T01:34:45;3.50;;;3.20;;
8927;SDS011;4499;48.304;11.902;2022-07-18T01:37:15;5.63;;;3.30;;
8927;SDS011;4499;48.304;11.902;2022-07-18T01:39:44;4.53;;;3.33;;
8927;SDS011;4499;48.304;11.902;2022-07-18T01:42:15;5.47;;;3.27;;
8927;SDS011;4499;48.304;11.902;2022-07-18T01:44:47;5.80;;;3.30;;
8927;SDS011;4499;48.304;11.902;2022-07-18T01:47:15;4.13;;;3.20;;
8927;SDS011;4499;48.304;11.902;2022-07-18T01:49:45;4.70;;;3.33;;
8927;SDS011;4499;48.304;11.902;2022-07-18T01:52:15;3.87;;;3.40;;
8927;SDS011;4499;48.304;11.902;2022-07-18T01:54:43;5.07;;;3.10;;
8927;SDS011;4499;48.304;11.902;2022-07-18T01:57:14;4.63;;;3.23;;
8927;SDS011;4499;48.304;11.902;2022-07-18T01:59:42;4.40;;;3.27;;
8927;SDS011;4499;48.304;11.902;2022-07-18T02:02:10;3.40;;;3.10;;
8927;SDS011;4499;48.304;11.902;2022-07-18T02:04:39;5.17;;;3.20;;
8927;SDS011;4499;48.304;11.902;2022-07-18T02:07:26;4.13;;;3.10;;
8927;SDS011;4499;48.304;11.902;2022-07-18T02:09:58;3.63;;;3.00;;
8927;SDS011;4499;48.304;11.902;2022-07-18T02:12:26;3.87;;;3.10;;
8927;SDS011;4499;48.304;11.902;2022-07-18T02:14:55;3.70;;;3.27;;
8927;SDS011;4499;48.304;11.902;2022-07-18T02:17:23;4.20;;;3.50;;
8927;SDS011;4499;48.304;11.902;2022-07-18T02:19:51;6.97;;;3.40;;
8927;SDS011;4499;48.304;11.902;2022-07-18T02:22:25;4.83;;;3.60;;
8927;SDS011;4499;48.304;11.902;2022-07-18T02:24:54;5.73;;;3.50;;
8927;SDS011;4499;48.304;11.902;2022-07-18T02:27:22;4.77;;;3.20;;
8927;SDS011;4499;48.304;11.902;2022-07-18T02:29:50;4.43;;;3.40;;
8927;SDS011;4499;48.304;11.902;2022-07-18T02:32:19;6.03;;;3.67;;
8927;SDS011;4499;48.304;11.902;2022-07-18T02:34:49;4.83;;;3.40;;
8927;SDS011;4499;48.304;11.902;2022-07-18T02:37:18;4.53;;;3.70;;
8927;SDS011;4499;48.304;11.902;2022-07-18T02:39:49;3.73;;;3.40;;
8927;SDS011;4499;48.304;11.902;2022-07-18T02:42:18;5.50;;;3.23;;
8927;SDS011;4499;48.304;11.902;2022-07-18T02:44:46;4.33;;;3.53;;
8927;SDS011;4499;48.304;11.902;2022-07-18T02:47:14;4.43;;;3.30;;
8927;SDS011;4499;48.304;11.902;2022-07-18T02:49:44;5.33;;;3.90;;
8927;SDS011;4499;48.304;11.902;2022-07-18T02:52:15;4.17;;;3.77;;
8927;SDS011;4499;48.304;11.902;2022-07-18T02:54:43;5.07;;;3.70;;
8927;SDS011;4499;48.304;11.902;2022-07-18T02:57:13;4.07;;;3.57;;
8927;SDS011;4499;48.304;11.902;2022-07-18T02:59:42;5.30;;;3.67;;
8927;SDS011;4499;48.304;11.902;2022-07-18T03:02:11;5.47;;;4.23;;
8927;SDS011;4499;48.304;11.902;2022-07-18T03:04:40;4.77;;;3.87;;
8927;SDS011;4499;48.304;11.902;2022-07-18T03:07:08;5.50;;;4.00;;
8927;SDS011;4499;48.304;11.902;2022-07-18T03:09:39;4.53;;;3.93;;
8927;SDS011;4499;48.304;11.902;2022-07-18T03:12:07;4.30;;;3.90;;
8927;SDS011;4499;48.304;11.902;2022-07-18T03:14:36;4.87;;;4.10;;
8927;SDS011;4499;48.304;11.902;2022-07-18T03:17:06;5.03;;;3.97;;
8927;SDS011;4499;48.304;11.902;2022-07-18T03:19:35;6.77;;;3.73;;
8927;SDS011;4499;48.304;11.902;2022-07-18T03:22:03;4.50;;;4.10;;
8927;SDS011;4499;48.304;11.902;2022-07-18T03:24:31;4.70;;;4.23;;
8927;SDS011;4499;48.304;11.902;2022-07-18T03:27:00;4.97;;;4.10;;
8927;SDS011;4499;48.304;11.902;2022-07-18T03:29:28;4.90;;;3.90;;
8927;SDS011;4499;48.304;11.902;2022-07-18T03:31:58;4.63;;;3.97;;
8927;SDS011;4499;48.304;11.902;2022-07-18T03:34:32;4.40;;;3.97;;
8927;SDS011;4499;48.304;11.902;2022-07-18T03:37:00;5.53;;;4.00;;
8927;SDS011;4499;48.304;11.902;2022-07-18T03:39:28;4.13;;;3.73;;
8927;SDS011;4499;48.304;11.902;2022-07-18T03:41:56;5.47;;;4.00;;
8927;SDS011;4499;48.304;11.902;2022-07-18T03:44:24;4.10;;;3.70;;
8927;SDS011;4499;48.304;11.902;2022-07-18T03:47:00;3.87;;;3.57;;
8927;SDS011;4499;48.304;11.902;2022-07-18T03:49:32;3.90;;;3.50;;
8927;SDS011;4499;48.304;11.902;2022-07-18T03:52:00;4.00;;;3.60;;
8927;SDS011;4499;48.304;11.902;2022-07-18T03:54:28;4.17;;;3.77;;
8927;SDS011;4499;48.304;11.902;2022-07-18T03:56:57;4.93;;;3.70;;
8927;SDS011;4499;48.304;11.902;2022-07-18T03:59:26;4.40;;;3.97;;
8927;SDS011;4499;48.304;11.902;2022-07-18T04:01:54;6.23;;;4.00;;
8927;SDS011;4499;48.304;11.902;2022-07-18T04:04:24;5.20;;;3.97;;
8927;SDS011;4499;48.304;11.902;2022-07-18T04:06:52;5.60;;;4.10;;
8927;SDS011;4499;48.304;11.902;2022-07-18T04:09:25;5.53;;;3.97;;
8927;SDS011;4499;48.304;11.902;2022-07-18T04:11:53;4.97;;;4.37;;
8927;SDS011;4499;48.304;11.902;2022-07-18T04:14:21;6.07;;;3.90;;
8927;SDS011;4499;48.304;11.902;2022-07-18T04:16:52;4.70;;;3.90;;
8927;SDS011;4499;48.304;11.902;2022-07-18T04:19:20;5.00;;;3.73;;
8927;SDS011;4499;48.304;11.902;2022-07-18T04:21:51;4.57;;;3.70;;
8927;SDS011;4499;48.304;11.902;2022-07-18T04:24:21;5.20;;;4.17;;
8927;SDS011;4499;48.304;11.902;2022-07-18T04:26:49;6.47;;;4.10;;
8927;SDS011;4499;48.304;11.902;2022-07-18T04:29:17;6.40;;;4.10;;
8927;SDS011;4499;48.304;11.902;2022-07-18T04:31:46;5.93;;;3.80;;
8927;SDS011;4499;48.304;11.902;2022-07-18T04:34:14;5.60;;;3.77;;
8927;SDS011;4499;48.304;11.902;2022-07-18T04:36:42;4.60;;;3.80;;
8927;SDS011;4499;48.304;11.902;2022-07-18T04:39:11;4.90;;;3.90;;
8927;SDS011;4499;48.304;11.902;2022-07-18T04:41:42;4.93;;;3.70;;
8927;SDS011;4499;48.304;11.902;2022-07-18T04:44:10;6.40;;;3.93;;
8927;SDS011;4499;48.304;11.902;2022-07-18T04:46:38;8.43;;;4.10;;
8927;SDS011;4499;48.304;11.902;2022-07-18T04:49:07;5.70;;;4.00;;
8927;SDS011;4499;48.304;11.902;2022-07-18T04:51:35;7.13;;;4.27;;
8927;SDS011;4499;48.304;11.902;2022-07-18T04:54:03;5.03;;;4.17;;
8927;SDS011;4499;48.304;11.902;2022-07-18T04:56:33;6.07;;;4.37;;
8927;SDS011;4499;48.304;11.902;2022-07-18T04:59:02;8.97;;;3.93;;
8927;SDS011;4499;48.304;11.902;2022-07-18T05:01:30;6.77;;;4.00;;
8927;SDS011;4499;48.304;11.902;2022-07-18T05:03:59;6.03;;;4.13;;
8927;SDS011;4499;48.304;11.902;2022-07-18T05:06:29;5.50;;;3.87;;
8927;SDS011;4499;48.304;11.902;2022-07-18T05:09:00;4.03;;;3.53;;
8927;SDS011;4499;48.304;11.902;2022-07-18T05:11:28;4.33;;;3.80;;
8927;SDS011;4499;48.304;11.902;2022-07-18T05:13:58;5.87;;;3.87;;
8927;SDS011;4499;48.304;11.902;2022-07-18T05:16:26;5.13;;;3.57;;
8927;SDS011;4499;48.304;11.902;2022-07-18T05:18:57;4.53;;;3.67;;
8927;SDS011;4499;48.304;11.902;2022-07-18T05:21:29;5.27;;;3.00;;
8927;SDS011;4499;48.304;11.902;2022-07-18T05:24:01;6.27;;;3.40;;
8927;SDS011;4499;48.304;11.902;2022-07-18T05:26:29;5.10;;;3.40;;
8927;SDS011;4499;48.304;11.902;2022-07-18T05:29:02;3.60;;;3.30;;
8927;SDS011;4499;48.304;11.902;2022-07-18T05:31:31;5.93;;;3.50;;
8927;SDS011;4499;48.304;11.902;2022-07-18T05:33:59;4.67;;;3.70;;
8927;SDS011;4499;48.304;11.902;2022-07-18T05:36:27;6.20;;;3.43;;
8927;SDS011;4499;48.304;11.902;2022-07-18T05:38:56;5.17;;;3.10;;
8927;SDS011;4499;48.304;11.902;2022-07-18T05:41:24;6.93;;;3.20;;
8927;SDS011;4499;48.304;11.902;2022-07-18T05:43:52;4.60;;;3.10;;
8927;SDS011;4499;48.304;11.902;2022-07-18T05:46:22;6.70;;;3.37;;
8927;SDS011;4499;48.304;11.902;2022-07-18T05:48:50;4.53;;;3.10;;
8927;SDS011;4499;48.304;11.902;2022-07-18T05:51:18;4.57;;;2.97;;
8927;SDS011;4499;48.304;11.902;2022-07-18T05:53:50;4.03;;;3.13;;
8927;SDS011;4499;48.304;11.902;2022-07-18T05:56:18;5.77;;;3.47;;
8927;SDS011;4499;48.304;11.902;2022-07-18T05:58:46;5.77;;;3.10;;
8927;SDS011;4499;48.304;11.902;2022-07-18T06:01:15;4.20;;;2.80;;
8927;SDS011;4499;48.304;11.902;2022-07-18T06:03:48;5.10;;;2.83;;
8927;SDS011;4499;48.304;11.902;2022-07-18T06:06:16;4.57;;;2.90;;
8927;SDS011;4499;48.304;11.902;2022-07-18T06:08:45;4.03;;;2.80;;
8927;SDS011;4499;48.304;11.902;2022-07-18T06:11:13;3.57;;;2.33;;
8927;SDS011;4499;48.304;11.902;2022-07-18T06:13:44;5.87;;;2.77;;
8927;SDS011;4499;48.304;11.902;2022-07-18T06:16:13;5.27;;;2.70;;
8927;SDS011;4499;48.304;11.902;2022-07-18T06:18:42;4.53;;;2.40;;
8927;SDS011;4499;48.304;11.902;2022-07-18T06:21:11;2.90;;;2.60;;
8927;SDS011;4499;48.304;11.902;2022-07-18T06:23:40;3.20;;;2.50;;
8927;SDS011;4499;48.304;11.902;2022-07-18T06:26:08;4.43;;;2.40;;
8927;SDS011;4499;48.304;11.902;2022-07-18T06:28:36;4.32;;;2.60;;
8927;SDS011;4499;48.304;11.902;2022-07-18T06:31:12;5.38;;;2.50;;
8927;SDS011;4499;48.304;11.902;2022-07-18T06:33:42;4.05;;;2.60;;
8927;SDS011;4499;48.304;11.902;2022-07-18T06:36:14;3.85;;;2.50;;
8927;SDS011;4499;48.304;11.902;2022-07-18T06:38:43;2.95;;;2.33;;
8927;SDS011;4499;48.304;11.902;2022-07-18T06:41:12;2.47;;;2.15;;
8927;SDS011;4499;48.304;11.902;2022-07-18T06:43:40;4.53;;;2.30;;
8927;SDS011;4499;48.304;11.902;2022-07-18T06:46:08;3.80;;;2.55;;
8927;SDS011;4499;48.304;11.902;2022-07-18T06:48:36;2.97;;;2.10;;
8927;SDS011;4499;48.304;11.902;2022-07-18T06:51:05;3.00;;;2.47;;
8927;SDS011;4499;48.304;11.902;2022-07-18T06:53:36;4.55;;;2.20;;
8927;SDS011;4499;48.304;11.902;2022-07-18T06:56:05;2.42;;;2.22;;
8927;SDS011;4499;48.304;11.902;2022-07-18T06:58:33;3.90;;;2.05;;
8927;SDS011;4499;48.304;11.902;2022-07-18T07:01:01;4.15;;;2.55;;
8927;SDS011;4499;48.304;11.902;2022-07-18T07:03:30;4.13;;;2.40;;
8927;SDS011;4499;48.304;11.902;2022-07-18T07:05:59;3.83;;;2.28;;
8927;SDS011;4499;48.304;11.902;2022-07-18T07:08:27;3.25;;;2.20;;
8927;SDS011;4499;48.304;11.902;2022-07-18T07:10:56;2.90;;;2.22;;
8927;SDS011;4499;48.304;11.902;2022-07-18T07:13:24;3.38;;;2.10;;
8927;SDS011;4499;48.304;11.902;2022-07-18T07:15:53;3.95;;;2.67;;
8927;SDS011;4499;48.304;11.902;2022-07-18T07:18:21;2.40;;;2.03;;
8927;SDS011;4499;48.304;11.902;2022-07-18T07:20:52;4.32;;;2.20;;
8927;SDS011;4499;48.304;11.902;2022-07-18T07:23:21;4.18;;;2.25;;
8927;SDS011;4499;48.304;11.902;2022-07-18T07:25:49;2.97;;;2.20;;
8927;SDS011;4499;48.304;11.902;2022-07-18T07:28:19;3.17;;;2.03;;
8927;SDS011;4499;48.304;11.902;2022-07-18T07:30:47;2.85;;;2.10;;
8927;SDS011;4499;48.304;11.902;2022-07-18T07:33:16;3.50;;;2.30;;
8927;SDS011;4499;48.304;11.902;2022-07-18T07:35:44;5.22;;;1.98;;
8927;SDS011;4499;48.304;11.902;2022-07-18T07:38:12;2.85;;;2.25;;
8927;SDS011;4499;48.304;11.902;2022-07-18T07:40:44;2.58;;;2.10;;
8927;SDS011;4499;48.304;11.902;2022-07-18T07:43:15;2.63;;;1.90;;
8927;SDS011;4499;48.304;11.902;2022-07-18T07:45:50;4.22;;;2.22;;
8927;SDS011;4499;48.304;11.902;2022-07-18T07:48:20;4.90;;;2.42;;
8927;SDS011;4499;48.304;11.902;2022-07-18T07:50:48;2.15;;;1.95;;
8927;SDS011;4499;48.304;11.902;2022-07-18T07:53:18;2.22;;;2.00;;
8927;SDS011;4499;48.304;11.902;2022-07-18T07:55:48;2.15;;;1.85;;
8927;SDS011;4499;48.304;11.902;2022-07-18T07:58:17;3.45;;;2.10;;
8927;SDS011;4499;48.304;11.902;2022-07-18T08:00:45;4.78;;;2.20;;
8927;SDS011;4499;48.304;11.902;2022-07-18T08:03:17;2.53;;;2.03;;
8927;SDS011;4499;48.304;11.902;2022-07-18T08:05:47;4.97;;;1.92;;
8927;SDS011;4499;48.304;11.902;2022-07-18T08:08:17;3.90;;;2.08;;
8927;SDS011;4499;48.304;11.902;2022-07-18T08:10:46;3.88;;;2.00;;
8927;SDS011;4499;48.304;11.902;2022-07-18T08:13:19;2.10;;;1.90;;
8927;SDS011;4499;48.304;11.902;2022-07-18T08:15:47;3.22;;;2.25;;
8927;SDS011;4499;48.304;11.902;2022-07-18T08:18:18;6.20;;;2.00;;
8927;SDS011;4499;48.304;11.902;2022-07-18T08:20:46;3.40;;;2.00;;
8927;SDS011;4499;48.304;11.902;2022-07-18T08:23:14;2.95;;;2.00;;
8927;SDS011;4499;48.304;11.902;2022-07-18T08:25:44;2.55;;;2.00;;
8927;SDS011;4499;48.304;11.902;2022-07-18T08:28:16;3.70;;;1.80;;
8927;SDS011;4499;48.304;11.902;2022-07-18T08:30:45;2.03;;;1.77;;
8927;SDS011;4499;48.304;11.902;2022-07-18T08:33:13;4.95;;;2.03;;
8927;SDS011;4499;48.304;11.902;2022-07-18T08:35:45;5.53;;;2.17;;
8927;SDS011;4499;48.304;11.902;2022-07-18T08:38:13;3.53;;;1.90;;
8927;SDS011;4499;48.304;11.902;2022-07-18T08:40:45;2.50;;;1.90;;
8927;SDS011;4499;48.304;11.902;2022-07-18T08:43:15;3.00;;;1.92;;
8927;SDS011;4499;48.304;11.902;2022-07-18T08:45:48;2.70;;;1.80;;
8927;SDS011;4499;48.304;11.902;2022-07-18T08:48:17;3.25;;;1.90;;
8927;SDS011;4499;48.304;11.902;2022-07-18T08:50:47;5.05;;;2.10;;
8927;SDS011;4499;48.304;11.902;2022-07-18T08:53:17;3.15;;;1.98;;
8927;SDS011;4499;48.304;11.902;2022-07-18T08:55:46;4.32;;;2.10;;
8927;SDS011;4499;48.304;11.902;2022-07-18T08:58:15;4.43;;;1.98;;
8927;SDS011;4499;48.304;11.902;2022-07-18T09:01:04;1.98;;;1.80;;
8927;SDS011;4499;48.304;11.902;2022-07-18T09:03:36;6.15;;;1.85;;
8927;SDS011;4499;48.304;11.902;2022-07-18T09:06:07;1.73;;;1.60;;
8927;SDS011;4499;48.304;11.902;2022-07-18T09:08:38;2.15;;;1.95;;
8927;SDS011;4499;48.304;11.902;2022-07-18T09:11:08;3.05;;;1.70;;
8927;SDS011;4499;48.304;11.902;2022-07-18T09:13:58;2.65;;;1.50;;
8927;SDS011;4499;48.304;11.902;2022-07-18T09:16:27;2.30;;;1.80;;
8927;SDS011;4499;48.304;11.902;2022-07-18T09:18:55;3.08;;;1.80;;
8927;SDS011;4499;48.304;11.902;2022-07-18T09:21:25;3.72;;;1.70;;
8927;SDS011;4499;48.304;11.902;2022-07-18T09:24:03;2.83;;;1.60;;
8927;SDS011;4499;48.304;11.902;2022-07-18T09:26:37;2.65;;;1.67;;
8927;SDS011;4499;48.304;11.902;2022-07-18T09:29:06;3.38;;;1.70;;
8927;SDS011;4499;48.304;11.902;2022-07-18T09:31:53;1.63;;;1.50;;
8927;SDS011;4499;48.304;11.902;2022-07-18T09:34:33;1.60;;;1.40;;
8927;SDS011;4499;48.304;11.902;2022-07-18T09:37:03;2.25;;;1.60;;
8927;SDS011;4499;48.304;11.902;2022-07-18T09:39:37;4.38;;;1.50;;
8927;SDS011;4499;48.304;11.902;2022-07-18T09:42:14;2.22;;;1.42;;
8927;SDS011;4499;48.304;11.902;2022-07-18T09:44:47;3.65;;;1.40;;
8927;SDS011;4499;48.304;11.902;2022-07-18T09:47:24;1.52;;;1.30;;
8927;SDS011;4499;48.304;11.902;2022-07-18T09:49:53;1.45;;;1.30;;
8927;SDS011;4499;48.304;11.902;2022-07-18T09:52:23;1.70;;;1.50;;
8927;SDS011;4499;48.304;11.902;2022-07-18T09:54:52;2.42;;;1.45;;
8927;SDS011;4499;48.304;11.902;2022-07-18T09:57:32;2.88;;;1.40;;
8927;SDS011;4499;48.304;11.902;2022-07-18T10:00:02;2.60;;;1.40;;
8927;SDS011;4499;48.304;11.902;2022-07-18T10:02:31;2.63;;;1.50;;
8927;SDS011;4499;48.304;11.902;2022-07-18T10:05:00;2.97;;;1.50;;
8927;SDS011;4499;48.304;11.902;2022-07-18T10:07:37;2.10;;;1.52;;
8927;SDS011;4499;48.304;11.902;2022-07-18T10:10:05;3.78;;;1.58;;
8927;SDS011;4499;48.304;11.902;2022-07-18T10:12:34;3.38;;;1.55;;
8927;SDS011;4499;48.304;11.902;2022-07-18T10:15:02;4.00;;;1.70;;
8927;SDS011;4499;48.304;11.902;2022-07-18T10:17:32;3.35;;;1.60;;
8927;SDS011;4499;48.304;11.902;2022-07-18T10:20:06;3.40;;;1.70;;
8927;SDS011;4499;48.304;11.902;2022-07-18T10:22:40;2.20;;;1.52;;
8927;SDS011;4499;48.304;11.902;2022-07-18T10:25:10;3.78;;;1.63;;
8927;SDS011;4499;48.304;11.902;2022-07-18T10:27:50;5.18;;;1.70;;
8927;SDS011;4499;48.304;11.902;2022-07-18T10:30:30;2.88;;;1.70;;
8927;SDS011;4499;48.304;11.902;2022-07-18T10:33:00;1.80;;;1.70;;
8927;SDS011;4499;48.304;11.902;2022-07-18T10:38:41;5.88;;;1.80;;
8927;SDS011;4499;48.304;11.902;2022-07-18T10:41:31;3.38;;;1.73;;
8927;SDS011;4499;48.304;11.902;2022-07-18T10:44:00;2.10;;;1.80;;
8927;SDS011;4499;48.304;11.902;2022-07-18T10:47:04;3.40;;;1.70;;
8927;SDS011;4499;48.304;11.902;2022-07-18T10:52:57;3.30;;;1.70;;
8927;SDS011;4499;48.304;11.902;2022-07-18T10:55:28;2.17;;;1.88;;
8927;SDS011;4499;48.304;11.902;2022-07-18T10:58:17;2.50;;;1.60;;
8927;SDS011;4499;48.304;11.902;2022-07-18T11:00:48;3.50;;;1.77;;
8927;SDS011;4499;48.304;11.902;2022-07-18T11:03:18;3.97;;;1.70;;
8927;SDS011;4499;48.304;11.902;2022-07-18T11:06:01;3.10;;;1.55;;
8927;SDS011;4499;48.304;11.902;2022-07-18T11:08:31;2.35;;;1.70;;
8927;SDS011;4499;48.304;11.902;2022-07-18T11:11:05;1.98;;;1.67;;
8927;SDS011;4499;48.304;11.902;2022-07-18T11:13:44;3.63;;;1.83;;
8927;SDS011;4499;48.304;11.902;2022-07-18T11:16:23;2.13;;;1.60;;
8927;SDS011;4499;48.304;11.902;2022-07-18T11:21:45;3.47;;;1.65;;
8927;SDS011;4499;48.304;11.902;2022-07-18T11:24:14;1.73;;;1.40;;
8927;SDS011;4499;48.304;11.902;2022-07-18T11:26:44;3.22;;;1.70;;
8927;SDS011;4499;48.304;11.902;2022-07-18T11:29:15;1.73;;;1.52;;
8927;SDS011;4499;48.304;11.902;2022-07-18T11:31:47;3.53;;;1.50;;
8927;SDS011;4499;48.304;11.902;2022-07-18T11:34:19;1.98;;;1.50;;
8927;SDS011;4499;48.304;11.902;2022-07-18T11:37:02;3.67;;;1.80;;
8927;SDS011;4499;48.304;11.902;2022-07-18T11:39:31;2.20;;;1.60;;
8927;SDS011;4499;48.304;11.902;2022-07-18T11:42:03;3.20;;;1.50;;
8927;SDS011;4499;48.304;11.902;2022-07-18T11:44:31;3.63;;;1.50;;
8927;SDS011;4499;48.304;11.902;2022-07-18T11:47:00;2.72;;;1.63;;
8927;SDS011;4499;48.304;11.902;2022-07-18T11:49:30;2.38;;;1.55;;
8927;SDS011;4499;48.304;11.902;2022-07-18T11:51:59;2.42;;;1.55;;
8927;SDS011;4499;48.304;11.902;2022-07-18T11:54:27;1.85;;;1.30;;
8927;SDS011;4499;48.304;11.902;2022-07-18T11:56:56;5.05;;;1.58;;
8927;SDS011;4499;48.304;11.902;2022-07-18T11:59:37;4.88;;;1.70;;
8927;SDS011;4499;48.304;11.902;2022-07-18T12:02:07;3.22;;;1.60;;
8927;SDS011;4499;48.304;11.902;2022-07-18T12:04:40;3.00;;;1.58;;
8927;SDS011;4499;48.304;11.902;2022-07-18T12:07:16;2.35;;;1.50;;
8927;SDS011;4499;48.304;11.902;2022-07-18T12:09:46;3.25;;;1.45;;
8927;SDS011;4499;48.304;11.902;2022-07-18T12:12:17;4.60;;;1.50;;
8927;SDS011;4499;48.304;11.902;2022-07-18T12:14:57;3.03;;;1.40;;
8927;SDS011;4499;48.304;11.902;2022-07-18T12:17:27;4.35;;;1.40;;
8927;SDS011;4499;48.304;11.902;2022-07-18T12:20:08;3.25;;;1.58;;
8927;SDS011;4499;48.304;11.902;2022-07-18T12:23:02;3.47;;;1.70;;
8927;SDS011;4499;48.304;11.902;2022-07-18T12:25:35;7.63;;;1.52;;
8927;SDS011;4499;48.304;11.902;2022-07-18T12:28:12;1.50;;;1.40;;
8927;SDS011;4499;48.304;11.902;2022-07-18T12:30:43;2.13;;;1.50;;
8927;SDS011;4499;48.304;11.902;2022-07-18T12:33:13;3.67;;;1.53;;
8927;SDS011;4499;48.304;11.902;2022-07-18T12:35:42;3.30;;;1.37;;
8927;SDS011;4499;48.304;11.902;2022-07-18T12:38:11;2.80;;;1.53;;
8927;SDS011;4499;48.304;11.902;2022-07-18T12:40:43;3.77;;;1.50;;
8927;SDS011;4499;48.304;11.902;2022-07-18T12:43:13;2.60;;;1.60;;
8927;SDS011;4499;48.304;11.902;2022-07-18T12:45:44;3.30;;;1.50;;
8927;SDS011;4499;48.304;11.902;2022-07-18T12:48:12;2.60;;;1.50;;
8927;SDS011;4499;48.304;11.902;2022-07-18T12:50:41;2.40;;;1.40;;
8927;SDS011;4499;48.304;11.902;2022-07-18T12:53:10;3.57;;;1.47;;
8927;SDS011;4499;48.304;11.902;2022-07-18T12:55:40;2.50;;;1.50;;
8927;SDS011;4499;48.304;11.902;2022-07-18T12:58:08;2.50;;;1.37;;
8927;SDS011;4499;48.304;11.902;2022-07-18T13:00:36;4.00;;;1.30;;
8927;SDS011;4499;48.304;11.902;2022-07-18T13:03:06;2.83;;;1.47;;
8927;SDS011;4499;48.304;11.902;2022-07-18T13:05:35;2.67;;;1.60;;
8927;SDS011;4499;48.304;11.902;2022-07-18T13:08:03;2.73;;;1.50;;
8927;SDS011;4499;48.304;11.902;2022-07-18T13:10:35;2.47;;;1.50;;
8927;SDS011;4499;48.304;11.902;2022-07-18T13:13:09;1.93;;;1.50;;
8927;SDS011;4499;48.304;11.902;2022-07-18T13:15:38;4.00;;;1.90;;
8927;SDS011;4499;48.304;11.902;2022-07-18T13:18:08;10.30;;;1.70;;
8927;SDS011;4499;48.304;11.902;2022-07-18T13:20:37;2.57;;;1.27;;
8927;SDS011;4499;48.304;11.902;2022-07-18T13:23:08;3.27;;;1.20;;
8927;SDS011;4499;48.304;11.902;2022-07-18T13:25:38;2.70;;;1.47;;
8927;SDS011;4499;48.304;11.902;2022-07-18T13:28:07;2.00;;;1.20;;
8927;SDS011;4499;48.304;11.902;2022-07-18T13:30:35;1.67;;;1.40;;
8927;SDS011;4499;48.304;11.902;2022-07-18T13:33:04;4.23;;;1.60;;
8927;SDS011;4499;48.304;11.902;2022-07-18T13:35:33;5.30;;;1.60;;
8927;SDS011;4499;48.304;11.902;2022-07-18T13:38:04;1.50;;;1.30;;
8927;SDS011;4499;48.304;11.902;2022-07-18T13:40:33;1.43;;;1.30;;
8927;SDS011;4499;48.304;11.902;2022-07-18T13:43:01;2.70;;;1.30;;
8927;SDS011;4499;48.304;11.902;2022-07-18T13:45:29;3.57;;;1.33;;
8927;SDS011;4499;48.304;11.902;2022-07-18T13:47:58;2.90;;;1.50;;
8927;SDS011;4499;48.304;11.902;2022-07-18T13:50:26;2.57;;;1.30;;
8927;SDS011;4499;48.304;11.902;2022-07-18T13:52:58;4.00;;;1.70;;
8927;SDS011;4499;48.304;11.902;2022-07-18T13:55:26;3.83;;;1.40;;
8927;SDS011;4499;48.304;11.902;2022-07-18T13:57:58;2.40;;;1.40;;
8927;SDS011;4499;48.304;11.902;2022-07-18T14:00:32;3.00;;;1.30;;
8927;SDS011;4499;48.304;11.902;2022-07-18T14:03:08;4.00;;;1.50;;
8927;SDS011;4499;48.304;11.902;2022-07-18T14:05:36;3.40;;;1.43;;
8927;SDS011;4499;48.304;11.902;2022-07-18T14:08:06;1.93;;;1.40;;
8927;SDS011;4499;48.304;11.902;2022-07-18T14:10:35;3.50;;;1.40;;
8927;SDS011;4499;48.304;11.902;2022-07-18T14:13:04;2.50;;;1.20;;
8927;SDS011;4499;48.304;11.902;2022-07-18T14:15:34;2.03;;;1.33;;
8927;SDS011;4499;48.304;11.902;2022-07-18T14:18:02;1.70;;;1.30;;
8927;SDS011;4499;48.304;11.902;2022-07-18T14:20:31;2.20;;;1.33;;
8927;SDS011;4499;48.304;11.902;2022-07-18T14:23:00;2.10;;;1.50;;
8927;SDS011;4499;48.304;11.902;2022-07-18T14:25:33;5.27;;;1.50;;
8927;SDS011;4499;48.304;11.902;2022-07-18T14:28:02;4.83;;;1.57;;
8927;SDS011;4499;48.304;11.902;2022-07-18T14:30:31;1.80;;;1.40;;
8927;SDS011;4499;48.304;11.902;2022-07-18T14:33:00;3.43;;;1.37;;
8927;SDS011;4499;48.304;11.902;2022-07-18T14:35:28;1.30;;;1.20;;
8927;SDS011;4499;48.304;11.902;2022-07-18T14:37:57;2.43;;;1.50;;
8927;SDS011;4499;48.304;11.902;2022-07-18T14:40:29;2.20;;;1.43;;
8927;SDS011;4499;48.304;11.902;2022-07-18T14:42:58;1.90;;;1.37;;
8927;SDS011;4499;48.304;11.902;2022-07-18T14:45:27;2.23;;;1.27;;
8927;SDS011;4499;48.304;11.902;2022-07-18T14:48:01;2.23;;;1.50;;
8927;SDS011;4499;48.304;11.902;2022-07-18T14:50:29;3.27;;;1.30;;
8927;SDS011;4499;48.304;11.902;2022-07-18T14:52:57;2.67;;;1.40;;
8927;SDS011;4499;48.304;11.902;2022-07-18T14:55:25;2.03;;;1.37;;
8927;SDS011;4499;48.304;11.902;2022-07-18T14:57:54;4.67;;;1.30;;
8927;SDS011;4499;48.304;11.902;2022-07-18T15:00:24;1.50;;;1.20;;
8927;SDS011;4499;48.304;11.902;2022-07-18T15:02:52;2.73;;;1.60;;
8927;SDS011;4499;48.304;11.902;2022-07-18T15:05:24;2.93;;;1.50;;
8927;SDS011;4499;48.304;11.902;2022-07-18T15:07:52;1.50;;;1.10;;
8927;SDS011;4499;48.304;11.902;2022-07-18T15:10:20;2.30;;;1.33;;
8927;SDS011;4499;48.304;11.902;2022-07-18T15:12:51;2.40;;;1.40;;
8927;SDS011;4499;48.304;11.902;2022-07-18T15:15:20;2.10;;;1.20;;
8927;SDS011;4499;48.304;11.902;2022-07-18T15:17:50;3.27;;;1.20;;
8927;SDS011;4499;48.304;11.902;2022-07-18T15:20:20;2.73;;;1.37;;
8927;SDS011;4499;48.304;11.902;2022-07-18T15:22:48;3.00;;;1.53;;
8927;SDS011;4499;48.304;11.902;2022-07-18T15:25:16;1.37;;;1.20;;
8927;SDS011;4499;48.304;11.902;2022-07-18T15:27:45;2.50;;;1.57;;
8927;SDS011;4499;48.304;11.902;2022-07-18T15:30:13;1.63;;;1.43;;